createdAt,value
2024-01-22T00:01:23.989Z,-4.41
2024-01-22T00:04:26.758Z,-4.34
2024-01-22T00:07:29.522Z,-4.24
2024-01-22T00:10:32.211Z,-4.20
2024-01-22T00:13:34.873Z,-4.15
2024-01-22T00:16:41.096Z,-4.08
2024-01-22T00:19:43.955Z,-4.09
2024-01-22T00:22:46.708Z,-4.05
2024-01-22T00:25:49.374Z,-4.23
2024-01-22T00:28:52.007Z,-4.37
2024-01-22T00:31:54.666Z,-4.60
2024-01-22T00:34:57.378Z,-4.47
2024-01-22T00:38:00.118Z,-4.39
2024-01-22T00:41:05.417Z,-4.35
2024-01-22T00:44:08.205Z,-4.25
2024-01-22T00:47:11.098Z,-4.14
2024-01-22T00:50:14.144Z,-4.13
2024-01-22T00:53:16.810Z,-4.13
2024-01-22T00:56:19.492Z,-4.18
2024-01-22T00:59:22.143Z,-4.13
2024-01-22T01:02:24.789Z,-4.24
2024-01-22T01:05:28.111Z,-4.23
2024-01-22T01:08:33.468Z,-4.15
2024-01-22T01:11:36.277Z,-4.15
2024-01-22T01:14:38.977Z,-4.18
2024-01-22T01:17:41.690Z,-4.12
2024-01-22T01:20:44.508Z,-4.04
2024-01-22T01:23:47.173Z,-4.14
2024-01-22T01:26:53.081Z,-4.22
2024-01-22T01:29:55.821Z,-4.36
2024-01-22T01:32:58.724Z,-4.55
2024-01-22T01:36:01.608Z,-4.84
2024-01-22T01:39:04.610Z,-4.61
2024-01-22T01:42:07.644Z,-4.57
2024-01-22T01:45:18.069Z,-4.46
2024-01-22T01:48:21.504Z,-4.32
2024-01-22T01:51:25.602Z,-4.23
2024-01-22T01:54:29.897Z,-4.15
2024-01-22T01:57:33.037Z,-4.14
2024-01-22T02:00:36.131Z,-4.17
2024-01-22T02:03:41.639Z,-4.24
2024-01-22T02:06:44.538Z,-4.36
2024-01-22T02:09:52.314Z,-4.37
2024-01-22T02:12:54.948Z,-4.37
2024-01-22T02:15:57.690Z,-4.31
2024-01-22T02:19:00.549Z,-4.18
2024-01-22T02:22:03.254Z,-4.13
2024-01-22T02:25:06.474Z,-4.03
2024-01-22T02:28:09.313Z,-3.90
2024-01-22T02:31:11.976Z,-3.82
2024-01-22T02:34:14.698Z,-3.82
2024-01-22T02:37:17.455Z,-3.86
2024-01-22T02:40:20.109Z,-3.79
2024-01-22T02:43:22.774Z,-3.77
2024-01-22T02:46:28.438Z,-3.83
2024-01-22T02:49:31.208Z,-3.86
2024-01-22T02:52:33.884Z,-4.03
2024-01-22T02:55:36.560Z,-4.02
2024-01-22T02:58:39.316Z,-4.42
2024-01-22T03:01:42.073Z,-4.56
2024-01-22T03:04:45.176Z,-4.48
2024-01-22T03:07:47.832Z,-4.36
2024-01-22T03:10:50.757Z,-4.36
2024-01-22T03:13:53.421Z,-4.42
2024-01-22T03:16:56.051Z,-4.54
2024-01-22T03:19:58.708Z,-4.46
2024-01-22T03:23:01.325Z,-4.52
2024-01-22T03:26:03.943Z,-4.56
2024-01-22T03:29:06.634Z,-4.62
2024-01-22T03:32:09.290Z,-4.67
2024-01-22T03:35:11.944Z,-4.67
2024-01-22T03:38:15.034Z,-4.66
2024-01-22T03:41:18.037Z,-4.49
2024-01-22T03:44:20.691Z,-4.44
2024-01-22T03:47:23.400Z,-4.52
2024-01-22T03:50:26.117Z,-4.34
2024-01-22T03:53:28.941Z,-4.19
2024-01-22T03:56:31.555Z,-4.20
2024-01-22T03:59:38.551Z,-4.19
2024-01-22T04:02:41.316Z,-4.29
2024-01-22T04:05:44.299Z,-4.35
2024-01-22T04:08:47.542Z,-4.63
2024-01-22T04:11:50.391Z,-4.81
2024-01-22T04:14:53.327Z,-4.81
2024-01-22T04:17:56.093Z,-4.80
2024-01-22T04:20:58.952Z,-4.78
2024-01-22T04:24:01.693Z,-4.73
2024-01-22T04:27:04.628Z,-4.69
2024-01-22T04:30:08.046Z,-4.73
2024-01-22T04:33:13.656Z,-4.67
2024-01-22T04:36:16.564Z,-4.59
2024-01-22T04:39:20.846Z,-4.61
2024-01-22T04:42:23.680Z,-4.87
2024-01-22T04:45:26.398Z,-4.96
2024-01-22T04:48:29.296Z,-4.91
2024-01-22T04:51:32.004Z,-4.88
2024-01-22T04:54:34.652Z,-4.96
2024-01-22T04:57:37.330Z,-4.90
2024-01-22T05:00:40.003Z,-4.87
2024-01-22T05:03:42.687Z,-4.84
2024-01-22T05:06:45.537Z,-5.05
2024-01-22T05:09:48.340Z,-5.10
2024-01-22T05:12:51.074Z,-5.14
2024-01-22T05:15:53.796Z,-5.05
2024-01-22T05:18:58.912Z,-5.18
2024-01-22T05:22:01.733Z,-5.25
2024-01-22T05:25:04.922Z,-5.23
2024-01-22T05:28:07.585Z,-5.17
2024-01-22T05:31:10.297Z,-5.27
2024-01-22T05:34:13.021Z,-5.22
2024-01-22T05:37:15.774Z,-5.43
2024-01-22T05:40:18.504Z,-5.39
2024-01-22T05:43:21.193Z,-5.39
2024-01-22T05:46:23.861Z,-5.27
2024-01-22T05:49:29.998Z,-5.17
2024-01-22T05:52:33.435Z,-5.12
2024-01-22T05:55:36.701Z,-5.21
2024-01-22T05:58:39.354Z,-5.10
2024-01-22T06:01:42.354Z,-5.18
2024-01-22T06:04:45.101Z,-5.57
2024-01-22T06:07:49.048Z,-5.63
2024-01-22T06:10:52.282Z,-5.43
2024-01-22T06:14:01.775Z,-5.47
2024-01-22T06:17:12.233Z,-5.33
2024-01-22T06:20:15.355Z,-5.36
2024-01-22T06:23:18.201Z,-5.38
2024-01-22T06:26:26.983Z,-5.38
2024-01-22T06:29:31.494Z,-5.36
2024-01-22T06:32:34.478Z,-5.64
2024-01-22T06:35:38.106Z,-5.29
2024-01-22T06:38:40.901Z,-5.31
2024-01-22T06:41:43.591Z,-5.27
2024-01-22T06:44:46.257Z,-5.07
2024-01-22T06:47:49.418Z,-5.14
2024-01-22T06:50:52.690Z,-5.08
2024-01-22T06:53:55.369Z,-5.11
2024-01-22T06:56:58.078Z,-4.92
2024-01-22T07:00:06.290Z,-5.05
2024-01-22T07:03:09.829Z,-4.97
2024-01-22T07:06:12.735Z,-5.13
2024-01-22T07:09:17.402Z,-5.10
2024-01-22T07:12:21.342Z,-4.97
2024-01-22T07:15:24.275Z,-4.88
2024-01-22T07:18:27.090Z,-4.75
2024-01-22T07:21:29.858Z,-4.60
2024-01-22T07:24:32.983Z,-4.48
2024-01-22T07:27:39.137Z,-4.41
2024-01-22T07:30:41.814Z,-4.33
2024-01-22T07:33:44.733Z,-4.13
2024-01-22T07:36:48.053Z,-4.09
2024-01-22T07:39:50.711Z,-3.89
2024-01-22T07:42:53.590Z,-3.83
2024-01-22T07:45:58.233Z,-3.71
2024-01-22T07:49:01.996Z,-3.55
2024-01-22T07:52:04.938Z,-3.50
2024-01-22T07:55:09.224Z,-3.39
2024-01-22T07:58:14.138Z,-3.30
2024-01-22T08:01:17.048Z,-3.13
2024-01-22T08:04:19.925Z,-2.97
2024-01-22T08:07:23.944Z,-2.92
2024-01-22T08:10:26.750Z,-2.78
2024-01-22T08:13:29.488Z,-2.67
2024-01-22T08:16:32.166Z,-2.52
2024-01-22T08:19:36.224Z,-2.39
2024-01-22T08:22:39.797Z,-2.21
2024-01-22T08:25:42.468Z,-2.16
2024-01-22T08:28:46.298Z,-2.10
2024-01-22T08:31:49.023Z,-1.94
2024-01-22T08:34:51.912Z,-1.77
2024-01-22T08:37:56.110Z,-1.53
2024-01-22T08:40:58.784Z,-1.36
2024-01-22T08:44:03.333Z,-1.17
2024-01-22T08:47:06.029Z,-1.17
2024-01-22T08:50:09.007Z,-0.99
2024-01-22T08:53:11.915Z,-0.81
2024-01-22T08:56:17.293Z,-0.78
2024-01-22T08:59:20.008Z,-0.59
2024-01-22T09:02:22.630Z,-0.46
2024-01-22T09:05:25.334Z,-0.46
2024-01-22T09:08:28.430Z,-0.39
2024-01-22T09:11:31.008Z,-0.30
2024-01-22T09:14:33.654Z,-0.25
2024-01-22T09:17:38.331Z,-0.24
2024-01-22T09:20:41.091Z,-0.10
2024-01-22T09:23:43.808Z,0.00
2024-01-22T09:26:46.904Z,0.00
2024-01-22T09:29:52.154Z,0.14
2024-01-22T09:32:59.190Z,0.21
2024-01-22T09:36:05.222Z,0.29
2024-01-22T09:39:08.666Z,0.25
2024-01-22T09:42:15.707Z,0.09
2024-01-22T09:45:19.467Z,0.21
2024-01-22T09:48:22.614Z,0.16
2024-01-22T09:51:25.501Z,0.24
2024-01-22T09:54:30.966Z,0.33
2024-01-22T09:57:34.004Z,0.51
2024-01-22T10:00:39.210Z,0.56
2024-01-22T10:03:42.494Z,0.62
2024-01-22T10:06:47.542Z,0.73
2024-01-22T10:09:50.291Z,0.90
2024-01-22T10:13:05.503Z,0.91
2024-01-22T10:16:11.662Z,1.01
2024-01-22T10:19:14.427Z,1.08
2024-01-22T10:22:21.063Z,1.08
2024-01-22T10:25:24.552Z,1.17
2024-01-22T10:28:27.278Z,1.33
2024-01-22T10:31:31.191Z,1.43
2024-01-22T10:34:45.085Z,1.44
2024-01-22T10:38:05.866Z,1.52
2024-01-22T10:41:21.714Z,1.53
2024-01-22T10:44:25.070Z,1.65
2024-01-22T10:47:31.424Z,1.66
2024-01-22T10:50:37.954Z,1.83
2024-01-22T10:53:41.327Z,1.88
2024-01-22T10:56:51.863Z,1.92
2024-01-22T11:00:00.853Z,2.07
2024-01-22T11:03:05.894Z,2.04
2024-01-22T11:06:10.902Z,2.19
2024-01-22T11:09:18.286Z,2.21
2024-01-22T11:12:23.708Z,2.25
2024-01-22T11:15:26.510Z,2.33
2024-01-22T11:18:31.242Z,2.36
2024-01-22T11:21:45.113Z,2.38
2024-01-22T11:25:04.245Z,2.65
2024-01-22T11:28:10.630Z,2.75
2024-01-22T11:31:27.210Z,2.89
2024-01-22T11:34:39.850Z,2.98
2024-01-22T11:37:45.104Z,3.11
2024-01-22T11:40:54.100Z,3.13
2024-01-22T11:43:57.422Z,3.12
2024-01-22T11:47:06.841Z,3.10
2024-01-22T11:50:09.989Z,3.04
2024-01-22T11:53:12.859Z,3.14
2024-01-22T11:56:16.635Z,3.05
2024-01-22T11:59:19.455Z,3.10
2024-01-22T12:02:22.318Z,3.11
2024-01-22T12:05:25.166Z,3.06
2024-01-22T12:08:28.391Z,3.00
2024-01-22T12:11:50.698Z,2.99
2024-01-22T12:15:00.303Z,3.07
2024-01-22T12:18:04.447Z,3.13
2024-01-22T12:21:09.403Z,3.20
2024-01-22T12:24:16.314Z,3.38
2024-01-22T12:27:21.356Z,3.55
2024-01-22T12:30:25.124Z,3.58
2024-01-22T12:33:29.720Z,3.67
2024-01-22T12:36:35.334Z,3.63
2024-01-22T12:39:38.929Z,3.64
2024-01-22T12:42:48.432Z,3.65
2024-01-22T12:46:04.479Z,3.68
2024-01-22T12:49:07.358Z,3.64
2024-01-22T12:52:11.630Z,3.74
2024-01-22T12:55:18.138Z,3.80
2024-01-22T12:58:21.310Z,3.84
2024-01-22T13:01:24.201Z,3.92
2024-01-22T13:04:27.185Z,3.93
2024-01-22T13:07:30.125Z,3.99
2024-01-22T13:10:34.814Z,3.89
2024-01-22T13:13:37.697Z,3.96
2024-01-22T13:16:40.589Z,4.04
2024-01-22T13:19:43.827Z,3.96
2024-01-22T13:22:46.666Z,4.08
2024-01-22T13:25:49.802Z,3.91
2024-01-22T13:28:53.592Z,3.93
2024-01-22T13:31:57.171Z,3.94
2024-01-22T13:35:00.269Z,3.98
2024-01-22T13:38:05.672Z,3.97
2024-01-22T13:41:08.918Z,3.75
2024-01-22T13:44:16.472Z,3.85
2024-01-22T13:47:32.979Z,3.88
2024-01-22T13:50:40.352Z,3.97
2024-01-22T13:53:46.420Z,3.88
2024-01-22T13:56:49.809Z,3.86
2024-01-22T13:59:52.809Z,3.89
2024-01-22T14:02:55.623Z,3.88
2024-01-22T14:05:58.528Z,3.84
2024-01-22T14:09:01.559Z,3.75
2024-01-22T14:12:06.623Z,3.78
2024-01-22T14:15:11.145Z,3.67
2024-01-22T14:18:18.353Z,3.66
2024-01-22T14:21:21.924Z,3.61
2024-01-22T14:24:24.741Z,3.55
2024-01-22T14:27:27.605Z,3.44
2024-01-22T14:30:31.212Z,3.48
2024-01-22T14:33:34.109Z,3.46
2024-01-22T14:36:37.167Z,3.39
2024-01-22T14:39:40.266Z,3.39
2024-01-22T14:42:43.242Z,3.30
2024-01-22T14:45:46.080Z,3.21
2024-01-22T14:48:55.686Z,3.17
2024-01-22T14:52:04.545Z,3.05
2024-01-22T14:55:08.442Z,3.02
2024-01-22T14:58:11.214Z,3.01
2024-01-22T15:01:13.888Z,2.93
2024-01-22T15:04:16.729Z,2.90
2024-01-22T15:07:19.623Z,2.84
2024-01-22T15:10:22.388Z,2.71
2024-01-22T15:13:25.076Z,2.65
2024-01-22T15:16:29.078Z,2.52
2024-01-22T15:19:32.018Z,2.34
2024-01-22T15:22:34.973Z,2.22
2024-01-22T15:25:37.862Z,2.13
2024-01-22T15:28:42.182Z,2.05
2024-01-22T15:31:47.407Z,2.00
2024-01-22T15:34:50.479Z,1.80
2024-01-22T15:37:53.247Z,1.72
2024-01-22T15:40:56.516Z,1.66
2024-01-22T15:43:59.982Z,1.64
2024-01-22T15:47:02.699Z,1.57
2024-01-22T15:50:06.455Z,1.49
2024-01-22T15:53:09.203Z,1.48
2024-01-22T15:56:12.184Z,1.42
2024-01-22T15:59:14.896Z,1.29
2024-01-22T16:02:17.617Z,1.31
2024-01-22T16:05:20.453Z,1.29
2024-01-22T16:08:23.464Z,1.17
2024-01-22T16:11:29.439Z,1.15
2024-01-22T16:14:32.228Z,1.09
2024-01-22T16:17:35.014Z,1.05
2024-01-22T16:20:39.649Z,1.00
2024-01-22T16:23:42.396Z,1.02
2024-01-22T16:26:45.204Z,1.07
2024-01-22T16:29:49.976Z,1.02
2024-01-22T16:32:53.039Z,0.96
2024-01-22T16:35:56.823Z,0.97
2024-01-22T16:39:01.484Z,0.95
2024-01-22T16:42:05.889Z,0.93
2024-01-22T16:45:08.984Z,0.86
2024-01-22T16:48:12.390Z,0.82
2024-01-22T16:51:15.337Z,0.76
2024-01-22T16:54:18.210Z,0.69
2024-01-22T16:57:21.126Z,0.63
2024-01-22T17:00:24.241Z,0.55
2024-01-22T17:03:27.835Z,0.56
2024-01-22T17:06:30.924Z,0.49
2024-01-22T17:09:34.138Z,0.33
2024-01-22T17:12:39.740Z,0.26
2024-01-22T17:15:46.667Z,0.33
2024-01-22T17:18:50.558Z,0.43
2024-01-22T17:21:55.177Z,0.48
2024-01-22T17:24:58.979Z,0.40
2024-01-22T17:28:01.968Z,0.57
2024-01-22T17:31:06.595Z,0.60
2024-01-22T17:34:10.079Z,0.62
2024-01-22T17:37:13.910Z,0.68
2024-01-22T17:40:16.940Z,0.62
2024-01-22T17:43:19.780Z,0.52
2024-01-22T17:46:23.212Z,0.50
2024-01-22T17:49:26.150Z,0.50
2024-01-22T17:52:29.345Z,0.52
2024-01-22T17:55:34.365Z,0.39
2024-01-22T17:58:37.300Z,0.31
2024-01-22T18:01:40.336Z,0.18
2024-01-22T18:04:43.661Z,-0.01
2024-01-22T18:07:46.781Z,-0.15
2024-01-22T18:10:50.907Z,-0.20
2024-01-22T18:13:53.969Z,-0.26
2024-01-22T18:16:56.848Z,-0.21
2024-01-22T18:19:59.666Z,-0.17
2024-01-22T18:23:02.777Z,-0.20
2024-01-22T18:26:05.619Z,-0.31
2024-01-22T18:29:09.751Z,-0.34
2024-01-22T18:32:12.805Z,-0.44
2024-01-22T18:35:16.110Z,-0.39
2024-01-22T18:38:18.930Z,-0.20
2024-01-22T18:41:26.352Z,-0.16
2024-01-22T18:44:29.150Z,-0.17
2024-01-22T18:47:32.760Z,-0.19
2024-01-22T18:50:36.995Z,-0.22
2024-01-22T18:53:41.434Z,-0.29
2024-01-22T18:56:46.770Z,-0.33
2024-01-22T18:59:50.773Z,-0.39
2024-01-22T19:02:55.041Z,-0.39
2024-01-22T19:06:03.246Z,-0.40
2024-01-22T19:09:09.242Z,-0.58
2024-01-22T19:12:12.042Z,-0.71
2024-01-22T19:15:14.879Z,-0.80
2024-01-22T19:18:17.834Z,-0.70
2024-01-22T19:21:20.678Z,-0.74
2024-01-22T19:24:23.532Z,-0.80
2024-01-22T19:27:26.318Z,-0.70
2024-01-22T19:30:29.613Z,-0.67
2024-01-22T19:33:32.694Z,-0.73
2024-01-22T19:36:35.461Z,-0.80
2024-01-22T19:39:38.408Z,-0.87
2024-01-22T19:42:41.200Z,-0.79
2024-01-22T19:45:44.381Z,-0.84
2024-01-22T19:48:47.175Z,-0.89
2024-01-22T19:51:50.440Z,-1.01
2024-01-22T19:54:53.321Z,-0.94
2024-01-22T19:57:56.146Z,-0.93
2024-01-22T20:00:59.465Z,-0.96
2024-01-22T20:04:02.617Z,-0.95
2024-01-22T20:07:06.898Z,-0.91
2024-01-22T20:10:10.535Z,-0.88
2024-01-22T20:13:13.323Z,-0.87
2024-01-22T20:16:16.348Z,-0.88
2024-01-22T20:19:19.427Z,-0.91
2024-01-22T20:22:22.578Z,-0.90
2024-01-22T20:25:25.256Z,-0.88
2024-01-22T20:28:28.329Z,-0.85
2024-01-22T20:31:31.217Z,-0.82
2024-01-22T20:34:34.243Z,-0.80
2024-01-22T20:37:38.763Z,-0.79
2024-01-22T20:40:43.416Z,-0.88
2024-01-22T20:43:46.487Z,-0.99
2024-01-22T20:46:49.304Z,-0.94
2024-01-22T20:49:52.510Z,-1.00
2024-01-22T20:52:55.327Z,-1.03
2024-01-22T20:55:58.176Z,-0.93
2024-01-22T20:59:01.683Z,-0.93
2024-01-22T21:02:04.687Z,-0.92
2024-01-22T21:05:09.215Z,-0.89
2024-01-22T21:08:12.226Z,-0.88
2024-01-22T21:11:14.974Z,-0.79
2024-01-22T21:14:17.737Z,-0.76
2024-01-22T21:17:20.495Z,-0.76
2024-01-22T21:20:23.650Z,-0.66
2024-01-22T21:23:26.488Z,-0.73
2024-01-22T21:26:29.629Z,-0.63
2024-01-22T21:29:32.840Z,-0.64
2024-01-22T21:32:35.538Z,-0.69
2024-01-22T21:35:38.224Z,-0.69
2024-01-22T21:38:40.916Z,-0.76
2024-01-22T21:41:43.686Z,-0.87
2024-01-22T21:44:47.175Z,-0.81
2024-01-22T21:47:50.437Z,-0.72
2024-01-22T21:50:53.566Z,-0.73
2024-01-22T21:53:56.273Z,-0.68
2024-01-22T21:56:59.351Z,-0.65
2024-01-22T22:00:07.522Z,-0.68
2024-01-22T22:03:17.449Z,-0.64
2024-01-22T22:06:20.519Z,-0.67
2024-01-22T22:09:25.329Z,-0.66
2024-01-22T22:12:28.188Z,-0.57
2024-01-22T22:15:31.132Z,-0.48
2024-01-22T22:18:34.064Z,-0.42
2024-01-22T22:21:52.989Z,-0.44
2024-01-22T22:24:55.700Z,-0.51
2024-01-22T22:27:58.517Z,-0.54
2024-01-22T22:31:01.185Z,-0.54
2024-01-22T22:34:05.119Z,-0.53
2024-01-22T22:37:07.885Z,-0.41
2024-01-22T22:40:11.417Z,-0.56
2024-01-22T22:43:14.494Z,-0.55
2024-01-22T22:46:17.145Z,-0.52
2024-01-22T22:49:19.893Z,-0.53
2024-01-22T22:52:22.688Z,-0.49
2024-01-22T22:55:25.344Z,-0.54
2024-01-22T22:58:29.383Z,-0.42
2024-01-22T23:01:32.171Z,-0.52
2024-01-22T23:04:35.225Z,-0.57
2024-01-22T23:07:38.068Z,-0.65
2024-01-22T23:10:40.720Z,-0.68
2024-01-22T23:13:43.956Z,-0.62
2024-01-22T23:16:46.616Z,-0.63
2024-01-22T23:19:49.795Z,-0.60
2024-01-22T23:22:52.535Z,-0.57
2024-01-22T23:25:55.663Z,-0.50
2024-01-22T23:28:58.328Z,-0.48
2024-01-22T23:32:01.007Z,-0.51
2024-01-22T23:35:04.597Z,-0.45
2024-01-22T23:38:07.240Z,-0.48
2024-01-22T23:41:10.518Z,-0.52
2024-01-22T23:44:13.313Z,-0.40
2024-01-22T23:47:16.015Z,-0.42
2024-01-22T23:50:19.166Z,-0.32
2024-01-22T23:53:21.981Z,-0.32
2024-01-22T23:56:25.422Z,-0.39
2024-01-22T23:59:28.207Z,-0.40
